^^
Station Historical Data
Daily Summary for February 22, 2012 Units:  Both    English   Metric
« Previous Day
Next Day »
Daily Weekly Monthly Yearly Custom
  High: Low: Average:
Temperature: 43.3 °F /  6.3 °C 32.0 °F /  0 °C 37.4 °F /  3 °C
Dew Point: 39.8 °F /  4.3 °C 30.0 °F /  -1.1 °C 34.8 °F /  1.6 °C
Humidity: 96% 83% 90%
Wind Speed: 3.0mph /  4.8km/h - 1.2mph /  1.9km/h
Wind Gust: 6.0mph /  9.7km/h - -
Wind- - South
Pressure: 29.75 in /  1007.3 hPa 29.45 in /  997.2 hPa -
Precipitation: 0.03 in /  0.8 mm    
Historical Graphs
 
 
Tabular Data for February 22, 2012
Time Temperature Dew Point Pressure Wind Wind Speed Wind Gust Humidity Rainfall Rate (Hourly)
00:09 35.6 °F /  2 °C 31.2 °F /  -0.4 °C 29.75in /  1007.3hPa West 1.0mph /  1.6km/h 3.0mph /  4.8km/h 84% 0.00in /  0mm
00:19 35.7 °F /  2.1 °C 31.3 °F /  -0.4 °C 29.74in /  1007hPa Calm   3.0mph /  4.8km/h 84% 0.00in /  0mm
00:29 35.5 °F /  1.9 °C 31.1 °F /  -0.5 °C 29.74in /  1007hPa Calm   2.0mph /  3.2km/h 84% 0.00in /  0mm
00:39 35.3 °F /  1.8 °C 30.9 °F /  -0.6 °C 29.74in /  1007hPa Calm   2.0mph /  3.2km/h 84% 0.00in /  0mm
00:49 35.4 °F /  1.9 °C 31.0 °F /  -0.6 °C 29.74in /  1007hPa West 1.0mph /  1.6km/h 4.0mph /  6.4km/h 84% 0.00in /  0mm
00:59 35.5 °F /  1.9 °C 30.8 °F /  -0.7 °C 29.74in /  1007hPa West 1.0mph /  1.6km/h 5.0mph /  8km/h 83% 0.00in /  0mm
01:09 35.5 °F /  1.9 °C 30.8 °F /  -0.7 °C 29.74in /  1007hPa Calm   5.0mph /  8km/h 83% 0.00in /  0mm
01:19 35.3 °F /  1.8 °C 30.7 °F /  -0.7 °C 29.74in /  1007hPa West 1.0mph /  1.6km/h 5.0mph /  8km/h 83% 0.00in /  0mm
01:29 35.1 °F /  1.7 °C 30.5 °F /  -0.8 °C 29.73in /  1006.7hPa Calm   3.0mph /  4.8km/h 83% 0.00in /  0mm
01:39 35.1 °F /  1.7 °C 30.5 °F /  -0.8 °C 29.73in /  1006.7hPa Calm   4.0mph /  6.4km/h 83% 0.00in /  0mm
01:49 35.1 °F /  1.7 °C 30.5 °F /  -0.8 °C 29.73in /  1006.7hPa Calm   3.0mph /  4.8km/h 83% 0.00in /  0mm
01:59 35.1 °F /  1.7 °C 30.5 °F /  -0.8 °C 29.72in /  1006.3hPa Calm   2.0mph /  3.2km/h 83% 0.00in /  0mm
02:09 34.9 °F /  1.6 °C 30.2 °F /  -1 °C 29.72in /  1006.3hPa Calm   2.0mph /  3.2km/h 83% 0.00in /  0mm
02:19 34.8 °F /  1.6 °C 30.1 °F /  -1.1 °C 29.71in /  1006hPa Calm     83% 0.00in /  0mm
02:29 34.8 °F /  1.6 °C 30.2 °F /  -1 °C 29.71in /  1006hPa Calm   2.0mph /  3.2km/h 83% 0.00in /  0mm
02:39 34.7 °F /  1.5 °C 30.0 °F /  -1.1 °C 29.70in /  1005.6hPa Calm   2.0mph /  3.2km/h 83% 0.00in /  0mm
02:49 34.7 °F /  1.5 °C 30.1 °F /  -1.1 °C 29.70in /  1005.6hPa Calm   1.0mph /  1.6km/h 83% 0.00in /  0mm
02:59 34.7 °F /  1.5 °C 30.4 °F /  -0.9 °C 29.69in /  1005.3hPa Calm   2.0mph /  3.2km/h 84% 0.00in /  0mm
03:09 34.6 °F /  1.4 °C 30.3 °F /  -0.9 °C 29.69in /  1005.3hPa SSW 1.0mph /  1.6km/h 3.0mph /  4.8km/h 84% 0.00in /  0mm
03:19 34.7 °F /  1.5 °C 30.4 °F /  -0.9 °C 29.69in /  1005.3hPa Calm   2.0mph /  3.2km/h 84% 0.00in /  0mm
03:29 35.0 °F /  1.7 °C 30.7 °F /  -0.7 °C 29.69in /  1005.3hPa South 3.0mph /  4.8km/h 6.0mph /  9.7km/h 84% 0.00in /  0mm
03:39 35.3 °F /  1.8 °C 30.9 °F /  -0.6 °C 29.69in /  1005.3hPa SSW 1.0mph /  1.6km/h 6.0mph /  9.7km/h 84% 0.00in /  0mm
03:49 35.6 °F /  2 °C 31.3 °F /  -0.4 °C 29.69in /  1005.3hPa SSW 1.0mph /  1.6km/h 4.0mph /  6.4km/h 84% 0.00in /  0mm
03:59 36.0 °F /  2.2 °C 31.6 °F /  -0.2 °C 29.69in /  1005.3hPa Calm   5.0mph /  8km/h 84% 0.00in /  0mm
04:09 36.1 °F /  2.3 °C 31.7 °F /  -0.2 °C 29.69in /  1005.3hPa SSW 3.0mph /  4.8km/h 6.0mph /  9.7km/h 84% 0.00in /  0mm
04:19 36.1 °F /  2.3 °C 32.0 °F /  0 °C 29.69in /  1005.3hPa Calm   3.0mph /  4.8km/h 85% 0.00in /  0mm
04:29 35.8 °F /  2.1 °C 32.0 °F /  0 °C 29.68in /  1005hPa Calm   3.0mph /  4.8km/h 86% 0.00in /  0mm
04:39 35.4 °F /  1.9 °C 32.2 °F /  0.1 °C 29.68in /  1005hPa Calm     88% 0.00in /  0mm
04:49 35.0 °F /  1.7 °C 31.8 °F /  -0.1 °C 29.67in /  1004.6hPa Calm     88% 0.00in /  0mm
04:59 34.8 °F /  1.6 °C 31.8 °F /  -0.1 °C 29.67in /  1004.6hPa Calm     89% 0.00in /  0mm
05:09 34.4 °F /  1.3 °C 31.8 °F /  -0.1 °C 29.67in /  1004.6hPa Calm     90% 0.00in /  0mm
05:19 34.4 °F /  1.3 °C 31.8 °F /  -0.1 °C 29.66in /  1004.3hPa Calm     90% 0.00in /  0mm
05:29 34.4 °F /  1.3 °C 32.0 °F /  0 °C 29.66in /  1004.3hPa Calm     91% 0.00in /  0mm
05:39 34.4 °F /  1.3 °C 32.0 °F /  0 °C 29.67in /  1004.6hPa Calm     91% 0.00in /  0mm
05:49 34.4 °F /  1.3 °C 32.3 °F /  0.2 °C 29.67in /  1004.6hPa Calm     92% 0.00in /  0mm
05:59 34.4 °F /  1.3 °C 32.3 °F /  0.2 °C 29.66in /  1004.3hPa Calm     92% 0.01in /  0.3mm
06:09 34.4 °F /  1.3 °C 32.6 °F /  0.3 °C 29.66in /  1004.3hPa Calm     93% 0.00in /  0mm
06:19 34.3 °F /  1.3 °C 32.5 °F /  0.3 °C 29.65in /  1003.9hPa Calm     93% 0.00in /  0mm
06:29 34.4 °F /  1.3 °C 32.5 °F /  0.3 °C 29.65in /  1003.9hPa Calm     93% 0.00in /  0mm
06:39 34.3 °F /  1.3 °C 32.5 °F /  0.3 °C 29.65in /  1003.9hPa Calm     93% 0.00in /  0mm
06:49 34.2 °F /  1.2 °C 32.4 °F /  0.2 °C 29.65in /  1003.9hPa Calm     93% 0.00in /  0mm
06:59 34.4 °F /  1.3 °C 32.9 °F /  0.5 °C 29.65in /  1003.9hPa Calm     94% 0.00in /  0mm
07:09 34.4 °F /  1.3 °C 32.9 °F /  0.5 °C 29.65in /  1003.9hPa Calm     94% 0.00in /  0mm
07:19 34.2 °F /  1.2 °C 32.7 °F /  0.4 °C 29.64in /  1003.6hPa Calm     94% 0.00in /  0mm
07:29 34.0 °F /  1.1 °C 32.5 °F /  0.3 °C 29.63in /  1003.3hPa Calm     94% 0.00in /  0mm
07:39 34.0 °F /  1.1 °C 32.5 °F /  0.3 °C 29.63in /  1003.3hPa Calm     94% 0.00in /  0mm
07:49 34.3 °F /  1.3 °C 32.8 °F /  0.4 °C 29.63in /  1003.3hPa Calm   1.0mph /  1.6km/h 94% 0.00in /  0mm
07:59 34.5 °F /  1.4 °C 33.2 °F /  0.7 °C 29.62in /  1002.9hPa Calm     95% 0.00in /  0mm
08:09 34.9 °F /  1.6 °C 33.6 °F /  0.9 °C 29.62in /  1002.9hPa Calm   1.0mph /  1.6km/h 95% 0.01in /  0.3mm
08:19 35.2 °F /  1.8 °C 33.9 °F /  1.1 °C 29.62in /  1002.9hPa Calm     95% 0.00in /  0mm
08:29 35.7 °F /  2.1 °C 34.4 °F /  1.3 °C 29.61in /  1002.6hPa Calm   4.0mph /  6.4km/h 95% 0.00in /  0mm
08:39 36.1 °F /  2.3 °C 34.8 °F /  1.6 °C 29.61in /  1002.6hPa South 1.0mph /  1.6km/h 5.0mph /  8km/h 95% 0.00in /  0mm
08:49 36.5 °F /  2.5 °C 35.2 °F /  1.8 °C 29.61in /  1002.6hPa Calm   3.0mph /  4.8km/h 95% 0.00in /  0mm
08:59 36.8 °F /  2.7 °C 35.5 °F /  1.9 °C 29.60in /  1002.3hPa South 2.0mph /  3.2km/h 5.0mph /  8km/h 95% 0.00in /  0mm
09:09 37.2 °F /  2.9 °C 35.9 °F /  2.2 °C 29.59in /  1001.9hPa South 1.0mph /  1.6km/h 4.0mph /  6.4km/h 95% 0.00in /  0mm
09:19 37.5 °F /  3.1 °C 36.2 °F /  2.3 °C 29.59in /  1001.9hPa South 1.0mph /  1.6km/h 5.0mph /  8km/h 95% 0.00in /  0mm
09:29 37.9 °F /  3.3 °C 36.6 °F /  2.6 °C 29.58in /  1001.6hPa Calm   3.0mph /  4.8km/h 95% 0.00in /  0mm
09:39 38.2 °F /  3.4 °C 36.9 °F /  2.7 °C 29.58in /  1001.6hPa Calm   3.0mph /  4.8km/h 95% 0.00in /  0mm
09:49 38.5 °F /  3.6 °C 37.2 °F /  2.9 °C 29.57in /  1001.2hPa Calm   3.0mph /  4.8km/h 95% 0.00in /  0mm
09:59 38.5 °F /  3.6 °C 36.9 °F /  2.7 °C 29.57in /  1001.2hPa Calm   2.0mph /  3.2km/h 94% 0.00in /  0mm
10:09 38.4 °F /  3.6 °C 36.8 °F /  2.7 °C 29.57in /  1001.2hPa Calm   2.0mph /  3.2km/h 94% 0.00in /  0mm
10:19 38.2 °F /  3.4 °C 36.6 °F /  2.6 °C 29.57in /  1001.2hPa Calm   2.0mph /  3.2km/h 94% 0.00in /  0mm
10:29 38.4 °F /  3.6 °C 36.8 °F /  2.7 °C 29.56in /  1000.9hPa Calm   2.0mph /  3.2km/h 94% 0.00in /  0mm
10:39 38.6 °F /  3.7 °C 37.0 °F /  2.8 °C 29.56in /  1000.9hPa Calm   3.0mph /  4.8km/h 94% 0.00in /  0mm
10:49 38.7 °F /  3.7 °C 37.1 °F /  2.8 °C 29.55in /  1000.6hPa South 1.0mph /  1.6km/h 4.0mph /  6.4km/h 94% 0.01in /  0.3mm
10:59 38.8 °F /  3.8 °C 37.2 °F /  2.9 °C 29.55in /  1000.6hPa Calm   3.0mph /  4.8km/h 94% 0.00in /  0mm
11:09 38.7 °F /  3.7 °C 36.9 °F /  2.7 °C 29.55in /  1000.6hPa South 2.0mph /  3.2km/h 5.0mph /  8km/h 93% 0.00in /  0mm
11:19 39.1 °F /  3.9 °C 37.5 °F /  3.1 °C 29.55in /  1000.6hPa Calm   5.0mph /  8km/h 94% 0.00in /  0mm
11:29 38.8 °F /  3.8 °C 36.9 °F /  2.7 °C 29.55in /  1000.6hPa SSW 1.0mph /  1.6km/h 5.0mph /  8km/h 93% 0.00in /  0mm
11:39 38.6 °F /  3.7 °C 36.8 °F /  2.7 °C 29.54in /  1000.2hPa Calm   4.0mph /  6.4km/h 93% 0.00in /  0mm
11:49 38.9 °F /  3.8 °C 37.0 °F /  2.8 °C 29.54in /  1000.2hPa Calm   3.0mph /  4.8km/h 93% 0.00in /  0mm
11:59 39.1 °F /  3.9 °C 37.2 °F /  2.9 °C 29.53in /  999.9hPa Calm   2.0mph /  3.2km/h 93% 0.00in /  0mm
12:09 39.3 °F /  4.1 °C 37.4 °F /  3 °C 29.53in /  999.9hPa Calm   3.0mph /  4.8km/h 93% 0.00in /  0mm
12:19 40.2 °F /  4.6 °C 38.1 °F /  3.4 °C 29.52in /  999.5hPa Calm   4.0mph /  6.4km/h 92% 0.00in /  0mm
12:29 40.4 °F /  4.7 °C 38.0 °F /  3.3 °C 29.51in /  999.2hPa ESE 1.0mph /  1.6km/h 4.0mph /  6.4km/h 91% 0.00in /  0mm
12:39 41.0 °F /  5 °C 38.3 °F /  3.5 °C 29.50in /  998.9hPa SE 1.0mph /  1.6km/h 4.0mph /  6.4km/h 90% 0.00in /  0mm
12:49 41.2 °F /  5.1 °C 38.2 °F /  3.4 °C 29.49in /  998.5hPa SE 1.0mph /  1.6km/h 4.0mph /  6.4km/h 89% 0.00in /  0mm
12:59 41.6 °F /  5.3 °C 38.3 °F /  3.5 °C 29.50in /  998.9hPa SE 1.0mph /  1.6km/h 3.0mph /  4.8km/h 88% 0.00in /  0mm
13:09 41.6 °F /  5.3 °C 38.3 °F /  3.5 °C 29.49in /  998.5hPa SE 1.0mph /  1.6km/h 4.0mph /  6.4km/h 88% 0.00in /  0mm
13:19 42.1 °F /  5.6 °C 38.2 °F /  3.4 °C 29.48in /  998.2hPa Calm   4.0mph /  6.4km/h 86% 0.00in /  0mm
13:29 42.5 °F /  5.8 °C 38.3 °F /  3.5 °C 29.48in /  998.2hPa SSE 1.0mph /  1.6km/h 6.0mph /  9.7km/h 85% 0.00in /  0mm
13:39 42.8 °F /  6 °C 38.3 °F /  3.5 °C 29.48in /  998.2hPa Calm   6.0mph /  9.7km/h 84% 0.00in /  0mm
13:49 42.7 °F /  5.9 °C 37.9 °F /  3.3 °C 29.48in /  998.2hPa SSE 2.0mph /  3.2km/h 5.0mph /  8km/h 83% 0.00in /  0mm
13:59 42.6 °F /  5.9 °C 38.1 °F /  3.4 °C 29.48in /  998.2hPa South 1.0mph /  1.6km/h 5.0mph /  8km/h 84% 0.00in /  0mm
14:09 42.7 °F /  5.9 °C 38.5 °F /  3.6 °C 29.47in /  997.9hPa South 1.0mph /  1.6km/h 5.0mph /  8km/h 85% 0.00in /  0mm
14:19 42.8 °F /  6 °C 38.3 °F /  3.5 °C 29.47in /  997.9hPa Calm   2.0mph /  3.2km/h 84% 0.00in /  0mm
14:29 43.1 °F /  6.2 °C 38.6 °F /  3.7 °C 29.47in /  997.9hPa Calm   2.0mph /  3.2km/h 84% 0.00in /  0mm
14:39 43.3 °F /  6.3 °C 38.8 °F /  3.8 °C 29.46in /  997.5hPa South 1.0mph /  1.6km/h 3.0mph /  4.8km/h 84% 0.00in /  0mm
14:49 43.2 °F /  6.2 °C 38.3 °F /  3.5 °C 29.46in /  997.5hPa Calm   2.0mph /  3.2km/h 83% 0.00in /  0mm
14:59 43.3 °F /  6.3 °C 38.8 °F /  3.8 °C 29.46in /  997.5hPa South 1.0mph /  1.6km/h 4.0mph /  6.4km/h 84% 0.00in /  0mm
15:09 43.1 °F /  6.2 °C 38.6 °F /  3.7 °C 29.46in /  997.5hPa SSW 1.0mph /  1.6km/h 3.0mph /  4.8km/h 84% 0.00in /  0mm
15:19 43.3 °F /  6.3 °C 39.1 °F /  3.9 °C 29.46in /  997.5hPa SSW 1.0mph /  1.6km/h 4.0mph /  6.4km/h 85% 0.00in /  0mm
15:29 43.2 °F /  6.2 °C 39.0 °F /  3.9 °C 29.46in /  997.5hPa Calm   3.0mph /  4.8km/h 85% 0.00in /  0mm
15:39 43.1 °F /  6.2 °C 38.9 °F /  3.8 °C 29.47in /  997.9hPa Calm   2.0mph /  3.2km/h 85% 0.00in /  0mm
15:49 43.0 °F /  6.1 °C 38.8 °F /  3.8 °C 29.47in /  997.9hPa Calm     85% 0.00in /  0mm
15:59 42.9 °F /  6.1 °C 39.0 °F /  3.9 °C 29.47in /  997.9hPa Calm   2.0mph /  3.2km/h 86% 0.00in /  0mm
16:09 42.9 °F /  6.1 °C 39.3 °F /  4.1 °C 29.47in /  997.9hPa South 1.0mph /  1.6km/h 2.0mph /  3.2km/h 87% 0.00in /  0mm
16:19 42.7 °F /  5.9 °C 39.4 °F /  4.1 °C 29.47in /  997.9hPa Calm     88% 0.00in /  0mm
16:29 42.8 °F /  6 °C 39.8 °F /  4.3 °C 29.47in /  997.9hPa Calm     89% 0.00in /  0mm
16:39 42.8 °F /  6 °C 39.5 °F /  4.2 °C 29.46in /  997.5hPa Calm     88% 0.00in /  0mm
16:49 42.5 °F /  5.8 °C 39.2 °F /  4 °C 29.45in /  997.2hPa Calm     88% 0.00in /  0mm
16:59 42.3 °F /  5.7 °C 39.3 °F /  4.1 °C 29.45in /  997.2hPa Calm     89% 0.00in /  0mm
17:09 41.9 °F /  5.5 °C 38.9 °F /  3.8 °C 29.45in /  997.2hPa Calm     89% 0.00in /  0mm
17:19 41.2 °F /  5.1 °C 38.3 °F /  3.5 °C 29.45in /  997.2hPa Calm     89% 0.00in /  0mm
17:29 40.6 °F /  4.8 °C 37.9 °F /  3.3 °C 29.45in /  997.2hPa Calm     90% 0.00in /  0mm
17:39 40.1 °F /  4.5 °C 37.7 °F /  3.2 °C 29.46in /  997.5hPa Calm     91% 0.00in /  0mm
17:49 39.6 °F /  4.2 °C 37.2 °F /  2.9 °C 29.46in /  997.5hPa Calm     91% 0.00in /  0mm
17:59 39.2 °F /  4 °C 37.0 °F /  2.8 °C 29.46in /  997.5hPa Calm     92% 0.00in /  0mm
18:09 38.7 °F /  3.7 °C 36.6 °F /  2.6 °C 29.47in /  997.9hPa Calm     92% 0.00in /  0mm
18:19 38.3 °F /  3.5 °C 36.2 °F /  2.3 °C 29.47in /  997.9hPa Calm     92% 0.00in /  0mm
18:29 37.7 °F /  3.2 °C 35.9 °F /  2.2 °C 29.47in /  997.9hPa Calm     93% 0.00in /  0mm
18:39 37.1 °F /  2.8 °C 35.3 °F /  1.8 °C 29.47in /  997.9hPa Calm     93% 0.00in /  0mm
18:49 36.9 °F /  2.7 °C 35.1 °F /  1.7 °C 29.47in /  997.9hPa Calm     93% 0.00in /  0mm
18:59 36.9 °F /  2.7 °C 35.3 °F /  1.8 °C 29.47in /  997.9hPa Calm     94% 0.00in /  0mm
19:09 36.9 °F /  2.7 °C 35.3 °F /  1.8 °C 29.47in /  997.9hPa Calm     94% 0.00in /  0mm
19:19 36.9 °F /  2.7 °C 35.3 °F /  1.8 °C 29.47in /  997.9hPa Calm     94% 0.00in /  0mm
19:29 36.9 °F /  2.7 °C 35.3 °F /  1.8 °C 29.48in /  998.2hPa Calm     94% 0.00in /  0mm
19:39 36.7 °F /  2.6 °C 35.4 °F /  1.9 °C 29.48in /  998.2hPa Calm     95% 0.00in /  0mm
19:49 36.6 °F /  2.6 °C 35.3 °F /  1.8 °C 29.48in /  998.2hPa Calm     95% 0.00in /  0mm
19:59 36.4 °F /  2.4 °C 35.1 °F /  1.7 °C 29.48in /  998.2hPa Calm     95% 0.00in /  0mm
20:09 36.3 °F /  2.4 °C 35.0 °F /  1.7 °C 29.48in /  998.2hPa Calm     95% 0.00in /  0mm
20:19 36.4 °F /  2.4 °C 35.1 °F /  1.7 °C 29.49in /  998.5hPa Calm     95% 0.00in /  0mm
20:29 36.5 °F /  2.5 °C 35.2 °F /  1.8 °C 29.49in /  998.5hPa Calm     95% 0.00in /  0mm
20:39 36.9 °F /  2.7 °C 35.9 °F /  2.2 °C 29.49in /  998.5hPa Calm     96% 0.00in /  0mm
20:49 37.4 °F /  3 °C 36.4 °F /  2.4 °C 29.50in /  998.9hPa Calm     96% 0.00in /  0mm
20:59 37.4 °F /  3 °C 36.4 °F /  2.4 °C 29.50in /  998.9hPa Calm     96% 0.00in /  0mm
21:09 37.3 °F /  2.9 °C 36.3 °F /  2.4 °C 29.50in /  998.9hPa Calm   1.0mph /  1.6km/h 96% 0.00in /  0mm
21:19 36.9 °F /  2.7 °C 35.8 °F /  2.1 °C 29.50in /  998.9hPa Calm     96% 0.00in /  0mm
21:29 36.4 °F /  2.4 °C 35.4 °F /  1.9 °C 29.49in /  998.5hPa Calm     96% 0.00in /  0mm
21:39 36.1 °F /  2.3 °C 35.1 °F /  1.7 °C 29.49in /  998.5hPa Calm     96% 0.00in /  0mm
21:49 35.7 °F /  2.1 °C 34.4 °F /  1.3 °C 29.49in /  998.5hPa Calm     95% 0.00in /  0mm
21:59 35.2 °F /  1.8 °C 33.9 °F /  1.1 °C 29.50in /  998.9hPa Calm   1.0mph /  1.6km/h 95% 0.00in /  0mm
22:09 35.4 °F /  1.9 °C 34.4 °F /  1.3 °C 29.50in /  998.9hPa Calm     96% 0.00in /  0mm
22:19 35.3 °F /  1.8 °C 34.3 °F /  1.3 °C 29.50in /  998.9hPa Calm     96% 0.00in /  0mm
22:29 35.2 °F /  1.8 °C 34.2 °F /  1.2 °C 29.50in /  998.9hPa Calm     96% 0.00in /  0mm
22:39 34.9 °F /  1.6 °C 33.9 °F /  1.1 °C 29.50in /  998.9hPa Calm     96% 0.00in /  0mm
22:49 35.1 °F /  1.7 °C 34.1 °F /  1.2 °C 29.50in /  998.9hPa Calm     96% 0.00in /  0mm
22:59 34.8 °F /  1.6 °C 33.7 °F /  0.9 °C 29.50in /  998.9hPa Calm     96% 0.00in /  0mm
23:09 34.4 °F /  1.3 °C 33.4 °F /  0.8 °C 29.50in /  998.9hPa Calm     96% 0.00in /  0mm
23:19 34.1 °F /  1.2 °C 33.0 °F /  0.6 °C 29.49in /  998.5hPa Calm     96% 0.00in /  0mm
23:29 33.5 °F /  0.8 °C 32.5 °F /  0.3 °C 29.50in /  998.9hPa Calm     96% 0.00in /  0mm
23:39 32.9 °F /  0.5 °C 31.6 °F /  -0.2 °C 29.50in /  998.9hPa Calm     95% 0.00in /  0mm
23:49 32.3 °F /  0.2 °C 31.3 °F /  -0.4 °C 29.50in /  998.9hPa Calm     96% 0.00in /  0mm
23:59 32.0 °F /  0 °C 31.0 °F /  -0.6 °C 29.49in /  998.5hPa Calm     96% 0.00in /  0mm
jolietwx - Weather
Compliments of Weather Underground